Absecon Highlands, New Jersey
Current Conditions -  °F | °C
As of 12:54 AM on Friday 19 Dec 2014 (Local Time) from KACY Reporting Station
Overcast Overcast  
Wind Chill: 28°   Ceiling: 12000
Heat Index: 36°   Visibility: 10mi
Dew Point: 26°   Wind: 13mph
Humidity: 67%   Direction: 290°WNW
Pressure: 30.01"   Gusts: NA
Location:  39.4315°N, 74.5003°W
Report Text: KACY 190554Z 29011KT 10SM OVC120 02/M03 A3001 RMK AO2 SLP163 T00221033 10022 20011 58006
Loading
Personal Weather Stations






























Interactive Weather Map New forecast layout! Learn more

10-Day Weather Forecast

Advertisements
Track Severe Weather on mobile